Time;durP1;ratioP1;P1;durP2;ratioP2;P2;SDS_P1;SDS_P2;PMS_P1;PMS_P2;Temp;Humidity;BMP_temperature;BMP_pressure;BME280_temperature;BME280_humidity;BME280_pressure;Samples;Min_cycle;Max_cycle;Signal;HPM_P1;HPM_P2
2024/02/26 00:01:31;;;;;;;13.00;6.15;;;;;;;;;;4844039;29;20037;-75
2024/02/26 00:03:59;;;;;;;6.38;5.10;;;;;;;;;;4832170;29;20061;-73
2024/02/26 00:06:25;;;;;;;9.57;5.97;;;;;;;;;;4860057;29;20422;-74
2024/02/26 00:08:52;;;;;;;3.92;3.55;;;;;;;;;;4860535;29;20049;-74
2024/02/26 00:11:18;;;;;;;6.78;5.30;;;;;;;;;;4843514;29;20057;-74
2024/02/26 00:13:43;;;;;;;8.70;5.57;;;;;;;;;;4848835;29;20051;-74
2024/02/26 00:16:11;;;;;;;6.45;4.30;;;;;;;;;;4861969;29;20105;-74
2024/02/26 00:18:37;;;;;;;11.55;5.07;;;;;;;;;;4861524;29;20030;-75
2024/02/26 00:21:03;;;;;;;7.78;6.00;;;;;;;;;;4876653;29;20148;-75
2024/02/26 00:23:29;;;;;;;7.03;5.63;;;;;;;;;;4872576;29;20537;-74
2024/02/26 00:25:55;;;;;;;8.50;5.85;;;;;;;;;;4859576;29;20049;-74
2024/02/26 00:28:21;;;;;;;4.75;4.30;;;;;;;;;;4827537;29;20505;-74
2024/02/26 00:30:47;;;;;;;6.70;5.03;;;;;;;;;;4842740;29;20060;-74
2024/02/26 00:33:14;;;;;;;9.50;7.68;;;;;;;;;;4841980;29;20029;-75
2024/02/26 00:35:39;;;;;;;4.85;4.45;;;;;;;;;;4827461;29;20101;-75
2024/02/26 00:38:05;;;;;;;6.60;5.10;;;;;;;;;;4859333;29;20038;-74
2024/02/26 00:40:31;;;;;;;6.38;5.40;;;;;;;;;;4859331;29;20159;-74
2024/02/26 00:42:57;;;;;;;11.02;6.82;;;;;;;;;;4858777;29;20030;-75
2024/02/26 00:45:23;;;;;;;4.90;4.38;;;;;;;;;;4858256;29;20132;-74
2024/02/26 00:47:49;;;;;;;7.18;4.65;;;;;;;;;;4859631;29;20037;-75
2024/02/26 00:50:16;;;;;;;5.28;4.68;;;;;;;;;;4859153;29;20045;-75
2024/02/26 00:52:42;;;;;;;4.38;3.78;;;;;;;;;;4859134;29;20044;-75
2024/02/26 00:55:08;;;;;;;10.63;4.75;;;;;;;;;;4840325;29;20510;-74
2024/02/26 00:57:34;;;;;;;6.38;5.18;;;;;;;;;;4827250;29;20046;-75
2024/02/26 01:00:00;;;;;;;7.63;5.13;;;;;;;;;;4858169;29;20748;-74
2024/02/26 01:02:26;;;;;;;3.85;3.20;;;;;;;;;;4861013;29;20053;-76
2024/02/26 01:04:52;;;;;;;5.95;5.20;;;;;;;;;;4877420;29;20053;-75
2024/02/26 01:07:18;;;;;;;3.88;3.58;;;;;;;;;;4879867;29;20528;-75
2024/02/26 01:09:44;;;;;;;3.25;3.00;;;;;;;;;;4877830;29;20052;-75
2024/02/26 01:12:10;;;;;;;4.57;3.65;;;;;;;;;;4877918;29;20048;-75
2024/02/26 01:14:36;;;;;;;4.53;4.03;;;;;;;;;;4831862;29;20052;-75
2024/02/26 01:17:02;;;;;;;4.25;3.92;;;;;;;;;;4858987;29;20048;-74
2024/02/26 01:19:28;;;;;;;4.95;4.25;;;;;;;;;;4858654;29;20037;-75
2024/02/26 01:21:54;;;;;;;5.75;5.00;;;;;;;;;;4826815;29;20574;-75
2024/02/26 01:24:20;;;;;;;10.23;5.75;;;;;;;;;;4857495;29;20041;-74
2024/02/26 01:26:45;;;;;;;8.63;6.00;;;;;;;;;;4858612;29;20045;-74
2024/02/26 01:29:11;;;;;;;7.22;6.53;;;;;;;;;;4858522;29;20041;-74
2024/02/26 01:31:37;;;;;;;11.05;6.80;;;;;;;;;;4858163;29;20049;-75
2024/02/26 01:34:03;;;;;;;8.30;6.38;;;;;;;;;;4840785;29;20041;-74
2024/02/26 01:36:29;;;;;;;13.88;6.80;;;;;;;;;;4841467;29;20038;-74
2024/02/26 01:38:55;;;;;;;8.88;7.30;;;;;;;;;;4858507;29;20041;-74
2024/02/26 01:41:21;;;;;;;7.78;5.68;;;;;;;;;;4858042;29;20072;-74
2024/02/26 01:43:46;;;;;;;8.88;5.82;;;;;;;;;;4857546;29;20445;-74
2024/02/26 01:46:13;;;;;;;8.43;7.15;;;;;;;;;;4858327;29;20052;-75
2024/02/26 01:48:40;;;;;;;12.88;8.80;;;;;;;;;;4858307;29;20089;-75
2024/02/26 01:51:06;;;;;;;8.90;6.10;;;;;;;;;;4841524;29;20371;-75
2024/02/26 01:53:32;;;;;;;5.63;4.95;;;;;;;;;;4857013;29;20048;-74
2024/02/26 01:55:58;;;;;;;10.25;7.45;;;;;;;;;;4841821;29;20068;-75
2024/02/26 01:58:24;;;;;;;7.57;4.85;;;;;;;;;;4842536;29;20414;-76
2024/02/26 02:00:49;;;;;;;14.35;5.82;;;;;;;;;;4858665;29;20057;-76
2024/02/26 02:03:15;;;;;;;7.38;6.03;;;;;;;;;;4828284;29;20045;-75
2024/02/26 02:05:42;;;;;;;10.35;5.10;;;;;;;;;;4858438;29;20530;-76
2024/02/26 02:08:08;;;;;;;6.75;5.72;;;;;;;;;;4841908;29;20049;-75
2024/02/26 02:10:35;;;;;;;9.95;7.65;;;;;;;;;;4857089;29;20049;-75
2024/02/26 02:13:01;;;;;;;7.35;5.97;;;;;;;;;;4841567;29;20587;-77
2024/02/26 02:15:27;;;;;;;14.63;6.55;;;;;;;;;;4835480;29;20053;-75
2024/02/26 02:17:53;;;;;;;10.02;7.47;;;;;;;;;;4861782;29;20490;-76
2024/02/26 02:20:19;;;;;;;11.38;8.50;;;;;;;;;;4846564;29;20033;-74
2024/02/26 02:22:45;;;;;;;19.23;10.90;;;;;;;;;;4878245;29;20045;-74
2024/02/26 02:25:11;;;;;;;13.85;7.72;;;;;;;;;;4860954;29;20426;-74
2024/02/26 02:27:37;;;;;;;8.43;5.43;;;;;;;;;;4880387;29;20044;-74
2024/02/26 02:30:03;;;;;;;6.03;5.43;;;;;;;;;;4880419;29;20041;-75
2024/02/26 02:32:31;;;;;;;6.50;5.85;;;;;;;;;;4879703;29;20040;-76
2024/02/26 02:34:56;;;;;;;5.82;4.70;;;;;;;;;;4894601;29;20049;-75
2024/02/26 02:37:22;;;;;;;11.10;5.18;;;;;;;;;;4856293;29;20060;-75
2024/02/26 02:39:48;;;;;;;5.53;5.00;;;;;;;;;;4858284;29;20135;-74
2024/02/26 02:42:14;;;;;;;6.85;5.00;;;;;;;;;;4890490;29;20089;-74
2024/02/26 02:44:40;;;;;;;4.85;4.18;;;;;;;;;;4892108;29;20045;-76
2024/02/26 02:47:06;;;;;;;9.30;7.15;;;;;;;;;;4890987;29;20045;-76
2024/02/26 02:49:32;;;;;;;7.85;5.65;;;;;;;;;;4866185;29;20049;-75
2024/02/26 02:51:58;;;;;;;14.68;9.88;;;;;;;;;;4876520;29;20041;-76
2024/02/26 02:54:24;;;;;;;10.23;7.55;;;;;;;;;;4889875;29;20049;-75
2024/02/26 02:56:49;;;;;;;10.43;7.85;;;;;;;;;;4859723;29;20072;-76
2024/02/26 02:59:15;;;;;;;12.48;8.02;;;;;;;;;;4841346;29;20057;-75
2024/02/26 03:01:41;;;;;;;5.40;4.47;;;;;;;;;;4856521;29;20065;-75
2024/02/26 03:04:07;;;;;;;11.10;7.20;;;;;;;;;;4856038;29;20129;-75
2024/02/26 03:06:33;;;;;;;7.80;5.60;;;;;;;;;;4887132;29;20068;-74
2024/02/26 03:08:59;;;;;;;8.43;5.38;;;;;;;;;;4860700;29;20541;-74
2024/02/26 03:11:26;;;;;;;11.45;5.72;;;;;;;;;;4861024;29;20057;-75
2024/02/26 03:13:52;;;;;;;9.77;5.82;;;;;;;;;;4859302;29;20073;-75
2024/02/26 03:16:18;;;;;;;10.35;6.90;;;;;;;;;;4861039;29;20080;-75
2024/02/26 03:18:44;;;;;;;11.20;6.63;;;;;;;;;;4860638;29;20521;-74
2024/02/26 03:21:10;;;;;;;9.15;6.85;;;;;;;;;;4828902;29;20144;-76
2024/02/26 03:23:36;;;;;;;12.98;8.48;;;;;;;;;;4858411;29;20056;-74
2024/02/26 03:26:03;;;;;;;7.93;6.07;;;;;;;;;;4843802;29;20045;-73
2024/02/26 03:28:29;;;;;;;6.75;6.15;;;;;;;;;;4866991;29;20049;-74
2024/02/26 03:30:55;;;;;;;10.05;7.72;;;;;;;;;;4874341;29;20483;-74
2024/02/26 03:33:21;;;;;;;16.92;8.43;;;;;;;;;;4874949;29;20045;-74
2024/02/26 03:35:47;;;;;;;22.00;10.27;;;;;;;;;;4883456;29;20029;-74
2024/02/26 03:38:13;;;;;;;10.77;8.65;;;;;;;;;;4874450;29;20061;-75
2024/02/26 03:40:39;;;;;;;12.23;7.72;;;;;;;;;;4861332;29;20391;-75
2024/02/26 03:43:07;;;;;;;9.60;5.40;;;;;;;;;;4873776;29;20041;-75
2024/02/26 03:45:33;;;;;;;9.15;6.90;;;;;;;;;;4843712;29;20558;-76
2024/02/26 03:47:59;;;;;;;10.82;7.82;;;;;;;;;;4858985;29;20041;-75
2024/02/26 03:50:24;;;;;;;9.05;6.40;;;;;;;;;;4860160;29;20129;-76
2024/02/26 03:52:50;;;;;;;6.95;5.22;;;;;;;;;;4860700;29;20064;-76
2024/02/26 03:55:20;;;;;;;4.85;4.45;;;;;;;;;;4858117;29;20525;-75
2024/02/26 03:57:46;;;;;;;15.30;8.48;;;;;;;;;;4858494;29;20049;-76
2024/02/26 04:00:12;;;;;;;6.25;4.68;;;;;;;;;;4872782;29;20060;-77
2024/02/26 04:02:38;;;;;;;7.32;6.57;;;;;;;;;;4878389;29;20494;-76
2024/02/26 04:05:04;;;;;;;4.47;4.07;;;;;;;;;;4845734;29;20041;-75
2024/02/26 04:07:30;;;;;;;5.05;4.28;;;;;;;;;;4861559;29;20044;-76
2024/02/26 04:09:56;;;;;;;7.60;4.63;;;;;;;;;;4861899;29;20536;-76
2024/02/26 04:12:22;;;;;;;4.82;4.32;;;;;;;;;;4863201;29;20120;-74
2024/02/26 04:14:49;;;;;;;4.82;4.40;;;;;;;;;;4894787;29;20052;-74
2024/02/26 04:17:14;;;;;;;7.32;4.65;;;;;;;;;;4880362;29;20058;-74
2024/02/26 04:19:40;;;;;;;4.45;3.85;;;;;;;;;;4896772;29;20536;-74
2024/02/26 04:22:06;;;;;;;4.72;4.25;;;;;;;;;;4857655;29;20044;-74
2024/02/26 04:24:32;;;;;;;4.45;3.67;;;;;;;;;;4869763;29;20040;-74
2024/02/26 04:26:58;;;;;;;5.38;4.88;;;;;;;;;;4851488;29;20052;-75
2024/02/26 04:29:23;;;;;;;4.15;3.03;;;;;;;;;;4891795;29;20119;-73
2024/02/26 04:31:49;;;;;;;6.43;4.72;;;;;;;;;;4885334;29;20051;-73
2024/02/26 04:34:15;;;;;;;6.78;5.10;;;;;;;;;;4875568;29;20044;-73
2024/02/26 04:36:42;;;;;;;4.60;3.88;;;;;;;;;;4891728;29;20032;-74
2024/02/26 04:39:08;;;;;;;7.60;4.18;;;;;;;;;;4870122;29;20033;-73
2024/02/26 04:41:34;;;;;;;5.18;4.68;;;;;;;;;;4887115;29;20382;-73
2024/02/26 04:43:59;;;;;;;6.03;4.05;;;;;;;;;;4870719;29;20048;-72
2024/02/26 04:46:25;;;;;;;3.78;3.35;;;;;;;;;;4886715;29;20036;-73
2024/02/26 04:48:51;;;;;;;3.50;3.20;;;;;;;;;;4839696;29;20041;-73
2024/02/26 04:51:17;;;;;;;6.88;5.70;;;;;;;;;;4887642;29;20105;-73
2024/02/26 04:53:42;;;;;;;5.25;4.68;;;;;;;;;;4870947;29;20064;-74
2024/02/26 04:56:08;;;;;;;4.68;4.28;;;;;;;;;;4890159;29;20056;-73
2024/02/26 04:58:34;;;;;;;9.27;5.80;;;;;;;;;;4859648;29;20116;-73
2024/02/26 05:01:00;;;;;;;4.45;4.13;;;;;;;;;;4883479;29;20055;-73
2024/02/26 05:03:26;;;;;;;9.55;5.95;;;;;;;;;;4871648;29;20052;-73
2024/02/26 05:05:51;;;;;;;4.93;4.53;;;;;;;;;;4875073;29;20455;-73
2024/02/26 05:08:17;;;;;;;4.68;4.32;;;;;;;;;;4876015;29;20367;-73
2024/02/26 05:10:45;;;;;;;8.93;6.20;;;;;;;;;;4876642;29;20052;-73
2024/02/26 05:13:11;;;;;;;5.22;4.78;;;;;;;;;;4859990;29;20033;-73
2024/02/26 05:15:37;;;;;;;4.72;4.35;;;;;;;;;;4895349;29;20512;-73
2024/02/26 05:18:03;;;;;;;5.05;3.88;;;;;;;;;;4856128;29;20060;-73
2024/02/26 05:20:28;;;;;;;6.85;4.65;;;;;;;;;;4884826;29;20047;-72
2024/02/26 05:22:54;;;;;;;4.40;4.00;;;;;;;;;;4871437;29;20021;-73
2024/02/26 05:25:20;;;;;;;4.65;4.25;;;;;;;;;;4870435;29;20116;-74
2024/02/26 05:27:46;;;;;;;3.92;3.63;;;;;;;;;;4887491;29;20040;-79
2024/02/26 05:30:12;;;;;;;3.97;3.63;;;;;;;;;;4888450;29;20040;-79
2024/02/26 05:32:37;;;;;;;8.63;5.57;;;;;;;;;;4876001;29;20047;-79
2024/02/26 05:35:03;;;;;;;9.48;4.82;;;;;;;;;;4888502;29;20052;-79
2024/02/26 05:37:30;;;;;;;7.22;5.45;;;;;;;;;;4887792;29;20043;-80
2024/02/26 05:39:56;;;;;;;14.65;7.75;;;;;;;;;;4873515;29;20036;-80
2024/02/26 05:42:22;;;;;;;13.30;6.35;;;;;;;;;;4890075;29;20028;-78
2024/02/26 05:44:47;;;;;;;6.22;5.63;;;;;;;;;;4884635;29;20055;-80
2024/02/26 05:47:13;;;;;;;6.00;4.82;;;;;;;;;;4908336;29;20029;-80
2024/02/26 05:49:39;;;;;;;3.92;3.63;;;;;;;;;;4898257;29;20137;-79
2024/02/26 05:52:05;;;;;;;8.95;6.65;;;;;;;;;;4895919;29;20111;-79
2024/02/26 05:54:31;;;;;;;7.63;5.30;;;;;;;;;;4892721;29;20559;-79
2024/02/26 05:56:57;;;;;;;8.45;6.10;;;;;;;;;;4887713;29;20033;-80
2024/02/26 05:59:23;;;;;;;6.18;4.53;;;;;;;;;;4876465;29;20120;-80
2024/02/26 06:01:49;;;;;;;4.35;4.00;;;;;;;;;;4899991;29;20028;-79
2024/02/26 06:04:17;;;;;;;5.15;4.55;;;;;;;;;;4887494;29;20087;-81
2024/02/26 06:06:43;;;;;;;9.38;4.53;;;;;;;;;;4886929;29;20040;-80
2024/02/26 06:09:11;;;;;;;6.03;4.03;;;;;;;;;;4902276;29;20041;-79
2024/02/26 06:11:37;;;;;;;6.05;4.32;;;;;;;;;;4886229;29;20060;-79
2024/02/26 06:14:02;;;;;;;6.78;5.10;;;;;;;;;;4883922;29;20024;-80
2024/02/26 06:16:28;;;;;;;4.88;3.92;;;;;;;;;;4894167;29;20040;-80
2024/02/26 06:18:54;;;;;;;5.88;5.35;;;;;;;;;;4897328;29;20112;-78
2024/02/26 06:21:20;;;;;;;7.60;4.80;;;;;;;;;;4872510;29;20624;-77
2024/02/26 06:23:46;;;;;;;4.28;3.95;;;;;;;;;;4871785;29;20154;-77
2024/02/26 06:26:12;;;;;;;4.35;3.95;;;;;;;;;;4887989;29;20098;-78
2024/02/26 06:28:40;;;;;;;7.25;6.22;;;;;;;;;;4874628;29;20036;-80
2024/02/26 06:31:06;;;;;;;5.00;4.50;;;;;;;;;;4883332;29;20048;-76
2024/02/26 06:33:32;;;;;;;6.13;4.85;;;;;;;;;;4892359;29;20518;-77
2024/02/26 06:35:58;;;;;;;5.50;3.47;;;;;;;;;;4890846;29;20036;-76
2024/02/26 06:38:23;;;;;;;5.25;4.75;;;;;;;;;;4872091;29;20037;-76
2024/02/26 06:40:49;;;;;;;5.00;4.45;;;;;;;;;;4887381;29;20051;-78
2024/02/26 06:43:15;;;;;;;4.03;3.63;;;;;;;;;;4886270;29;20052;-78
2024/02/26 06:45:41;;;;;;;4.32;4.00;;;;;;;;;;4891235;29;20479;-78
2024/02/26 06:48:07;;;;;;;9.98;6.40;;;;;;;;;;4882079;29;20033;-74
2024/02/26 06:50:32;;;;;;;3.63;3.33;;;;;;;;;;4872681;29;20429;-76
2024/02/26 06:52:58;;;;;;;4.95;4.22;;;;;;;;;;4857682;29;20040;-74
2024/02/26 06:55:24;;;;;;;8.35;4.75;;;;;;;;;;4887306;29;20048;-76
2024/02/26 06:57:50;;;;;;;6.60;4.88;;;;;;;;;;4875452;29;20032;-77
2024/02/26 07:00:16;;;;;;;6.60;3.92;;;;;;;;;;4876122;29;20077;-79
2024/02/26 07:02:42;;;;;;;6.53;5.40;;;;;;;;;;4873640;29;20044;-76
2024/02/26 07:05:08;;;;;;;7.35;5.25;;;;;;;;;;4872539;29;20042;-76
2024/02/26 07:07:34;;;;;;;14.80;11.05;;;;;;;;;;4873967;29;20036;-75
2024/02/26 07:10:03;;;;;;;10.07;7.00;;;;;;;;;;4881179;29;20049;-76
2024/02/26 07:12:30;;;;;;;12.43;5.78;;;;;;;;;;4892738;29;20040;-79
2024/02/26 07:14:56;;;;;;;10.02;7.07;;;;;;;;;;4884805;29;20044;-78
2024/02/26 07:17:22;;;;;;;10.27;6.50;;;;;;;;;;4883453;29;20047;-78
2024/02/26 07:19:48;;;;;;;7.22;5.78;;;;;;;;;;4881501;29;20049;-76
2024/02/26 07:22:14;;;;;;;16.17;8.32;;;;;;;;;;4858315;29;20037;-78
2024/02/26 07:24:40;;;;;;;7.13;6.22;;;;;;;;;;4876372;29;20041;-79
2024/02/26 07:27:06;;;;;;;5.90;5.28;;;;;;;;;;4875222;29;20120;-74
2024/02/26 07:29:33;;;;;;;7.95;6.63;;;;;;;;;;4874468;29;20034;-74
2024/02/26 07:31:58;;;;;;;8.45;7.22;;;;;;;;;;4868079;29;20600;-75
2024/02/26 07:34:28;;;;;;;6.55;4.72;;;;;;;;;;4869373;29;20052;-75
2024/02/26 07:36:55;;;;;;;6.28;4.70;;;;;;;;;;4870795;29;20048;-75
2024/02/26 07:39:21;;;;;;;8.15;5.88;;;;;;;;;;4872075;29;20037;-75
2024/02/26 07:41:49;;;;;;;9.07;5.00;;;;;;;;;;4853840;29;20079;-74
2024/02/26 07:44:15;;;;;;;5.78;5.28;;;;;;;;;;4870179;29;20136;-74
2024/02/26 07:46:41;;;;;;;10.40;6.80;;;;;;;;;;4868683;29;20128;-74
2024/02/26 07:49:08;;;;;;;7.93;6.00;;;;;;;;;;4871925;29;20049;-75
2024/02/26 07:51:34;;;;;;;10.38;7.07;;;;;;;;;;4869112;29;20060;-76
2024/02/26 07:54:01;;;;;;;16.70;6.32;;;;;;;;;;4870209;29;20037;-75
2024/02/26 07:56:27;;;;;;;10.95;6.85;;;;;;;;;;4872721;29;20041;-76
2024/02/26 07:58:52;;;;;;;7.35;5.82;;;;;;;;;;4870941;29;20040;-75
2024/02/26 08:01:18;;;;;;;12.35;5.95;;;;;;;;;;4887496;29;20071;-74
2024/02/26 08:03:44;;;;;;;10.48;6.00;;;;;;;;;;4886178;29;20033;-76
2024/02/26 08:06:10;;;;;;;7.47;5.28;;;;;;;;;;4887078;29;20048;-76
2024/02/26 08:08:36;;;;;;;10.73;6.10;;;;;;;;;;4871669;29;20426;-75
2024/02/26 08:11:02;;;;;;;15.32;9.85;;;;;;;;;;4888600;29;20492;-76
2024/02/26 08:13:27;;;;;;;8.65;7.35;;;;;;;;;;4886592;29;20041;-76
2024/02/26 08:15:53;;;;;;;8.18;5.90;;;;;;;;;;4891494;29;20033;-77
2024/02/26 08:18:19;;;;;;;9.25;7.20;;;;;;;;;;4890033;29;20436;-75
2024/02/26 08:20:45;;;;;;;8.40;6.03;;;;;;;;;;4881416;29;20036;-74
2024/02/26 08:23:11;;;;;;;8.18;6.18;;;;;;;;;;4885628;29;20064;-75
2024/02/26 08:25:37;;;;;;;5.80;4.72;;;;;;;;;;4893423;29;20076;-74
2024/02/26 08:28:03;;;;;;;11.27;6.65;;;;;;;;;;4887233;29;20490;-75
2024/02/26 08:30:29;;;;;;;8.95;6.30;;;;;;;;;;4861586;29;20585;-74
2024/02/26 08:32:55;;;;;;;11.32;5.65;;;;;;;;;;4886086;29;20032;-73
2024/02/26 08:35:21;;;;;;;7.50;5.20;;;;;;;;;;4874075;29;20503;-74
2024/02/26 08:37:47;;;;;;;10.43;6.20;;;;;;;;;;4870264;29;20036;-73
2024/02/26 08:40:13;;;;;;;5.45;4.90;;;;;;;;;;4870186;29;20480;-75
2024/02/26 08:42:41;;;;;;;13.50;5.82;;;;;;;;;;4889425;29;20032;-74
2024/02/26 08:45:08;;;;;;;5.38;4.53;;;;;;;;;;4870093;29;20044;-74
2024/02/26 08:47:34;;;;;;;10.45;7.07;;;;;;;;;;4871479;29;20516;-75
2024/02/26 08:50:00;;;;;;;10.77;6.70;;;;;;;;;;4869538;29;20591;-75
2024/02/26 08:52:26;;;;;;;10.38;7.18;;;;;;;;;;4857143;29;20044;-76
2024/02/26 08:54:52;;;;;;;11.75;7.38;;;;;;;;;;4891270;29;20043;-75
2024/02/26 08:57:18;;;;;;;8.48;6.43;;;;;;;;;;4894798;29;20428;-77
2024/02/26 08:59:43;;;;;;;7.82;6.43;;;;;;;;;;4870780;29;20386;-75
2024/02/26 09:02:09;;;;;;;7.03;5.60;;;;;;;;;;4884779;29;20032;-76
2024/02/26 09:04:35;;;;;;;9.35;6.00;;;;;;;;;;4851467;29;20060;-77
2024/02/26 09:07:01;;;;;;;6.50;5.18;;;;;;;;;;4850680;29;20073;-77
2024/02/26 09:09:27;;;;;;;5.28;4.78;;;;;;;;;;4856876;29;20645;-77
2024/02/26 09:11:54;;;;;;;6.18;5.57;;;;;;;;;;4866579;29;20134;-77
2024/02/26 09:14:21;;;;;;;6.25;5.25;;;;;;;;;;4868177;29;20053;-76
2024/02/26 09:16:48;;;;;;;9.20;5.70;;;;;;;;;;4864195;29;20576;-76
2024/02/26 09:19:16;;;;;;;9.88;8.63;;;;;;;;;;4867168;29;20561;-77
2024/02/26 09:21:42;;;;;;;12.45;7.13;;;;;;;;;;4868523;29;20453;-76
2024/02/26 09:24:08;;;;;;;8.07;5.43;;;;;;;;;;4837650;29;20049;-77
2024/02/26 09:26:34;;;;;;;5.60;4.22;;;;;;;;;;4870134;29;20047;-76
2024/02/26 09:29:00;;;;;;;7.47;4.30;;;;;;;;;;4873591;29;20032;-77
2024/02/26 09:31:25;;;;;;;9.73;5.80;;;;;;;;;;4886944;29;20428;-76
2024/02/26 09:33:51;;;;;;;5.07;4.53;;;;;;;;;;4867152;29;20656;-77
2024/02/26 09:36:17;;;;;;;6.88;4.57;;;;;;;;;;4882787;29;20128;-77
2024/02/26 09:38:43;;;;;;;4.72;4.32;;;;;;;;;;4867618;29;20049;-77
2024/02/26 09:41:13;;;;;;;9.43;4.20;;;;;;;;;;4869983;29;20052;-78
2024/02/26 09:43:40;;;;;;;6.15;5.15;;;;;;;;;;4849642;29;20033;-77
2024/02/26 09:46:06;;;;;;;6.22;5.60;;;;;;;;;;4852604;29;20037;-77
2024/02/26 09:48:32;;;;;;;7.93;4.78;;;;;;;;;;4863739;29;20029;-76
2024/02/26 09:50:58;;;;;;;8.57;4.38;;;;;;;;;;4845845;29;20053;-76
2024/02/26 09:53:24;;;;;;;5.63;3.50;;;;;;;;;;4865947;29;20628;-77
2024/02/26 09:55:50;;;;;;;6.10;5.15;;;;;;;;;;4885056;29;20112;-77
2024/02/26 09:58:18;;;;;;;4.70;4.28;;;;;;;;;;4887360;29;20505;-77
2024/02/26 10:00:46;;;;;;;5.35;4.90;;;;;;;;;;4885730;29;20059;-76
2024/02/26 10:03:14;;;;;;;5.97;4.57;;;;;;;;;;4883312;29;20037;-77
2024/02/26 10:05:40;;;;;;;9.68;5.03;;;;;;;;;;4849854;29;20097;-78
2024/02/26 10:08:06;;;;;;;11.18;4.85;;;;;;;;;;4850991;29;20041;-77
2024/02/26 10:10:32;;;;;;;6.43;4.35;;;;;;;;;;4864501;29;20052;-77
2024/02/26 10:12:58;;;;;;;8.43;4.18;;;;;;;;;;4848385;29;20116;-77
2024/02/26 10:15:24;;;;;;;7.20;4.95;;;;;;;;;;4848105;29;20168;-78
2024/02/26 10:17:50;;;;;;;5.53;4.22;;;;;;;;;;4866396;29;20048;-77
2024/02/26 10:20:23;;;;;;;7.10;5.00;;;;;;;;;;4868627;29;20048;-78
2024/02/26 10:22:49;;;;;;;6.35;4.75;;;;;;;;;;4836780;29;20041;-77
2024/02/26 10:25:15;;;;;;;4.10;3.72;;;;;;;;;;4853990;29;20117;-78
2024/02/26 10:27:44;;;;;;;6.35;4.88;;;;;;;;;;4870297;29;20471;-77
2024/02/26 10:30:16;;;;;;;10.18;4.35;;;;;;;;;;4869871;29;20088;-78
2024/02/26 10:32:42;;;;;;;5.35;4.85;;;;;;;;;;4868499;29;20089;-77
2024/02/26 10:35:08;;;;;;;5.20;4.70;;;;;;;;;;4871272;29;20078;-77
2024/02/26 10:37:34;;;;;;;6.75;5.10;;;;;;;;;;4871049;29;20450;-76
2024/02/26 10:40:00;;;;;;;6.45;4.95;;;;;;;;;;4849742;29;20056;-76
2024/02/26 10:42:26;;;;;;;5.30;4.28;;;;;;;;;;4834871;29;20497;-75
2024/02/26 10:44:52;;;;;;;6.65;5.03;;;;;;;;;;4849703;29;20060;-76
2024/02/26 10:47:18;;;;;;;6.28;4.28;;;;;;;;;;4849189;29;20124;-76
2024/02/26 10:49:48;;;;;;;13.82;4.28;;;;;;;;;;4867880;29;20037;-75
2024/02/26 10:52:13;;;;;;;4.38;4.07;;;;;;;;;;4867324;29;20049;-75
2024/02/26 10:54:40;;;;;;;26.48;6.10;;;;;;;;;;4849754;29;20037;-75
2024/02/26 10:57:05;;;;;;;4.63;3.55;;;;;;;;;;4848141;29;20391;-76
2024/02/26 10:59:31;;;;;;;6.35;5.15;;;;;;;;;;4850515;29;20065;-76
2024/02/26 11:01:57;;;;;;;14.35;5.03;;;;;;;;;;4841450;29;20427;-76
2024/02/26 11:04:24;;;;;;;4.88;3.55;;;;;;;;;;4838826;29;20048;-76
2024/02/26 11:06:50;;;;;;;5.38;4.47;;;;;;;;;;4858427;29;20039;-76
2024/02/26 11:09:17;;;;;;;11.05;6.25;;;;;;;;;;4841868;29;20036;-76
2024/02/26 11:11:43;;;;;;;6.38;5.38;;;;;;;;;;4860604;29;20049;-77
2024/02/26 11:14:09;;;;;;;5.47;3.97;;;;;;;;;;4861062;29;20060;-75
2024/02/26 11:16:35;;;;;;;4.10;3.72;;;;;;;;;;4856592;29;20109;-77
2024/02/26 11:19:02;;;;;;;7.22;4.53;;;;;;;;;;4854702;29;20120;-75
2024/02/26 11:21:38;;;;;;;5.68;4.95;;;;;;;;;;4855339;29;20605;-77
2024/02/26 11:24:05;;;;;;;10.50;4.72;;;;;;;;;;4856114;29;20037;-78
2024/02/26 11:26:31;;;;;;;9.65;5.30;;;;;;;;;;4852814;29;20510;-77
2024/02/26 11:28:57;;;;;;;10.95;4.65;;;;;;;;;;4875083;29;20067;-76
2024/02/26 11:31:27;;;;;;;11.15;5.18;;;;;;;;;;4855623;29;20657;-76
2024/02/26 11:33:53;;;;;;;8.15;4.97;;;;;;;;;;4865760;29;20033;-76
2024/02/26 11:36:19;;;;;;;8.43;5.03;;;;;;;;;;4853469;29;20036;-76
2024/02/26 11:38:48;;;;;;;7.00;5.95;;;;;;;;;;4871294;29;20093;-76
2024/02/26 11:41:15;;;;;;;6.25;4.68;;;;;;;;;;4859705;29;20049;-76
2024/02/26 11:43:50;;;;;;;9.38;4.93;;;;;;;;;;4842459;29;20477;-76
2024/02/26 11:46:52;;;;;;;11.90;5.30;;;;;;;;;;4867727;29;20100;-75
2024/02/26 11:49:18;;;;;;;;;;;;;;;;;;4782071;30;20035;-75
2024/02/26 11:51:44;;;;;;;13.23;5.40;;;;;;;;;;4835819;29;19924;-76
2024/02/26 11:54:09;;;;;;;8.95;4.75;;;;;;;;;;4864588;29;20630;-75
2024/02/26 11:56:40;;;;;;;5.25;4.30;;;;;;;;;;4857558;29;20032;-76
2024/02/26 11:59:12;;;;;;;6.72;4.47;;;;;;;;;;4873905;29;20049;-76
2024/02/26 12:01:42;;;;;;;6.90;4.68;;;;;;;;;;4858201;29;20037;-76
2024/02/26 12:04:11;;;;;;;4.93;4.45;;;;;;;;;;4871423;29;20135;-76
2024/02/26 12:06:44;;;;;;;8.85;5.30;;;;;;;;;;4862854;29;20117;-76
2024/02/26 12:09:10;;;;;;;8.70;6.53;;;;;;;;;;4841996;29;20563;-76
2024/02/26 12:11:40;;;;;;;4.78;4.00;;;;;;;;;;4859295;29;20142;-75
2024/02/26 12:14:06;;;;;;;6.80;4.80;;;;;;;;;;4853730;29;20049;-75
2024/02/26 12:16:39;;;;;;;7.50;4.53;;;;;;;;;;4860329;29;20047;-77
2024/02/26 12:19:05;;;;;;;8.32;5.00;;;;;;;;;;4877741;29;20542;-75
2024/02/26 12:21:34;;;;;;;5.00;4.53;;;;;;;;;;4861089;29;20502;-77
2024/02/26 12:24:09;;;;;;;5.03;4.18;;;;;;;;;;4873228;29;20056;-76
2024/02/26 12:26:36;;;;;;;7.97;4.88;;;;;;;;;;4853836;29;20077;-76
2024/02/26 12:29:01;;;;;;;4.70;4.18;;;;;;;;;;4871865;29;20113;-76
2024/02/26 12:31:28;;;;;;;8.00;4.57;;;;;;;;;;4874833;29;20140;-77
2024/02/26 12:33:55;;;;;;;4.70;4.22;;;;;;;;;;4842268;29;20041;-75
2024/02/26 12:36:21;;;;;;;8.00;5.22;;;;;;;;;;4873055;29;20127;-75
2024/02/26 12:38:47;;;;;;;11.68;5.07;;;;;;;;;;4858887;29;20060;-75
2024/02/26 12:41:13;;;;;;;4.38;4.07;;;;;;;;;;4861623;29;20077;-75
2024/02/26 12:43:38;;;;;;;5.35;4.10;;;;;;;;;;4860507;29;20593;-76
2024/02/26 12:46:04;;;;;;;3.45;2.97;;;;;;;;;;4861119;29;20425;-75
2024/02/26 12:48:30;;;;;;;6.05;4.32;;;;;;;;;;4846576;29;20489;-76
2024/02/26 12:50:56;;;;;;;4.28;3.42;;;;;;;;;;4857321;29;20049;-76
2024/02/26 12:53:22;;;;;;;6.90;4.20;;;;;;;;;;4849404;29;20053;-75
2024/02/26 12:55:48;;;;;;;4.55;3.92;;;;;;;;;;4842888;29;20029;-75
2024/02/26 12:58:13;;;;;;;4.43;4.03;;;;;;;;;;4836001;29;20103;-75
2024/02/26 13:00:40;;;;;;;3.42;3.10;;;;;;;;;;4836868;29;20459;-76
2024/02/26 13:03:06;;;;;;;4.13;3.72;;;;;;;;;;4834099;29;20097;-75
2024/02/26 13:05:32;;;;;;;4.25;3.95;;;;;;;;;;4868674;29;20615;-75
2024/02/26 13:07:58;;;;;;;4.38;3.03;;;;;;;;;;4872063;29;20041;-76
2024/02/26 13:10:25;;;;;;;4.97;3.83;;;;;;;;;;4837567;29;20060;-75
2024/02/26 13:12:51;;;;;;;4.78;3.42;;;;;;;;;;4866537;29;20037;-75
2024/02/26 13:15:17;;;;;;;4.88;3.53;;;;;;;;;;4867502;29;20068;-75
2024/02/26 13:17:43;;;;;;;4.97;4.00;;;;;;;;;;4866671;29;20049;-75
2024/02/26 13:20:13;;;;;;;5.38;3.85;;;;;;;;;;4867868;29;20041;-75
2024/02/26 13:22:39;;;;;;;7.18;4.50;;;;;;;;;;4868090;29;20045;-76
2024/02/26 13:25:07;;;;;;;5.97;3.78;;;;;;;;;;4865867;29;20430;-74
2024/02/26 13:27:33;;;;;;;3.55;3.25;;;;;;;;;;4868449;29;20044;-76
2024/02/26 13:30:08;;;;;;;4.40;3.50;;;;;;;;;;4851720;29;20101;-76
2024/02/26 13:32:35;;;;;;;4.45;3.70;;;;;;;;;;4869047;29;20524;-77
2024/02/26 13:35:19;;;;;;;3.40;3.10;;;;;;;;;;4835939;29;20037;-76
2024/02/26 13:37:46;;;;;;;3.50;3.20;;;;;;;;;;4868989;29;20042;-75
2024/02/26 13:40:12;;;;;;;7.78;4.25;;;;;;;;;;4869734;29;20045;-77
2024/02/26 13:42:38;;;;;;;4.20;3.80;;;;;;;;;;4868407;29;20041;-77
2024/02/26 13:45:08;;;;;;;3.45;3.08;;;;;;;;;;4866296;29;20105;-76
2024/02/26 13:47:34;;;;;;;3.83;3.53;;;;;;;;;;4852684;29;20096;-76
2024/02/26 13:50:00;;;;;;;7.15;4.05;;;;;;;;;;4853576;29;20064;-76
2024/02/26 13:52:27;;;;;;;4.47;3.97;;;;;;;;;;4843491;29;20105;-75
2024/02/26 13:54:53;;;;;;;3.85;3.50;;;;;;;;;;4875781;29;20410;-75
2024/02/26 13:57:21;;;;;;;3.40;3.10;;;;;;;;;;4877493;29;20044;-76
2024/02/26 13:59:47;;;;;;;3.38;3.08;;;;;;;;;;4877438;29;20041;-76
2024/02/26 14:02:13;;;;;;;4.53;3.30;;;;;;;;;;4869509;29;20044;-75
2024/02/26 14:04:39;;;;;;;3.50;3.20;;;;;;;;;;4869278;29;20049;-76
2024/02/26 14:07:06;;;;;;;4.32;3.50;;;;;;;;;;4868959;29;20047;-74
2024/02/26 14:09:32;;;;;;;7.80;5.43;;;;;;;;;;4850137;29;20037;-76
2024/02/26 14:11:59;;;;;;;4.95;3.33;;;;;;;;;;4866960;29;20135;-77
2024/02/26 14:14:25;;;;;;;3.47;3.17;;;;;;;;;;4865666;29;20572;-77
2024/02/26 14:16:51;;;;;;;3.28;3.08;;;;;;;;;;4853496;29;20033;-76
2024/02/26 14:19:17;;;;;;;5.75;3.67;;;;;;;;;;4868913;29;20043;-76
2024/02/26 14:21:43;;;;;;;3.35;3.05;;;;;;;;;;4868674;29;20128;-77
2024/02/26 14:24:09;;;;;;;4.45;3.45;;;;;;;;;;4851266;29;20084;-75
2024/02/26 14:26:35;;;;;;;4.70;4.15;;;;;;;;;;4854083;29;20433;-76
2024/02/26 14:29:22;;;;;;;4.80;4.18;;;;;;;;;;4861323;29;20124;-75
2024/02/26 14:34:33;;;;;;;4.25;3.22;;;;;;;;;;4855864;29;20064;-75
2024/02/26 14:36:59;;;;;;;3.35;3.15;;;;;;;;;;4868659;29;20494;-75
2024/02/26 14:39:25;;;;;;;7.55;4.55;;;;;;;;;;4876270;29;20044;-75